Richland, Nebraska
Current Conditions -  °F | °C
As of 12:55 AM on Sunday 21 Dec 2014 (Local Time) from KOLU Reporting Station
Overcast Overcast  
Wind Chill: 34°   Ceiling: 200
Heat Index: 34°   Visibility: 0.25mi
Dew Point: 30°   Wind: 3mph
Humidity: 87%   Direction: 140°SE
Pressure: 29.95"   Gusts: NA
Location:  41.4657°N, 97.2904°W
Report Text: KOLU 210655Z AUTO 14003KT 1/4SM OVC002 01/M01 A2995 RMK AO1
Loading
Personal Weather Stations






























Interactive Weather Map New forecast layout! Learn more

10-Day Weather Forecast

Advertisements
Track Severe Weather on mobile